sensor_id;sensor_type;location;lat;lon;timestamp;P1;P2;P0
40371;PMS5003;28564;53.346;-6.554;2023-11-21T00:00:38;1;1;
40371;PMS5003;28564;53.346;-6.554;2023-11-21T00:03:06;4;3;
40371;PMS5003;28564;53.346;-6.554;2023-11-21T00:05:33;4;2;
40371;PMS5003;28564;53.346;-6.554;2023-11-21T00:08:00;3;3;
40371;PMS5003;28564;53.346;-6.554;2023-11-21T00:10:27;4;2;
40371;PMS5003;28564;53.346;-6.554;2023-11-21T00:12:55;5;3;
40371;PMS5003;28564;53.346;-6.554;2023-11-21T00:15:22;4;4;
40371;PMS5003;28564;53.346;-6.554;2023-11-21T00:17:49;3;2;
40371;PMS5003;28564;53.346;-6.554;2023-11-21T00:20:17;5;2;
40371;PMS5003;28564;53.346;-6.554;2023-11-21T00:22:44;3;3;
40371;PMS5003;28564;53.346;-6.554;2023-11-21T00:25:11;5;2;
40371;PMS5003;28564;53.346;-6.554;2023-11-21T00:27:38;2;2;
40371;PMS5003;28564;53.346;-6.554;2023-11-21T00:30:06;7;2;
40371;PMS5003;28564;53.346;-6.554;2023-11-21T00:32:35;4;2;
40371;PMS5003;28564;53.346;-6.554;2023-11-21T00:35:02;4;2;
40371;PMS5003;28564;53.346;-6.554;2023-11-21T00:37:30;2;2;
40371;PMS5003;28564;53.346;-6.554;2023-11-21T00:39:57;2;2;
40371;PMS5003;28564;53.346;-6.554;2023-11-21T00:42:24;3;3;
40371;PMS5003;28564;53.346;-6.554;2023-11-21T00:44:52;3;3;
40371;PMS5003;28564;53.346;-6.554;2023-11-21T00:47:19;4;2;
40371;PMS5003;28564;53.346;-6.554;2023-11-21T00:49:46;4;2;
40371;PMS5003;28564;53.346;-6.554;2023-11-21T00:52:14;3;3;
40371;PMS5003;28564;53.346;-6.554;2023-11-21T00:54:41;3;2;
40371;PMS5003;28564;53.346;-6.554;2023-11-21T00:57:08;5;4;
40371;PMS5003;28564;53.346;-6.554;2023-11-21T00:59:35;2;2;
40371;PMS5003;28564;53.346;-6.554;2023-11-21T01:02:03;5;4;
40371;PMS5003;28564;53.346;-6.554;2023-11-21T01:04:30;4;3;
40371;PMS5003;28564;53.346;-6.554;2023-11-21T01:06:58;3;2;
40371;PMS5003;28564;53.346;-6.554;2023-11-21T01:09:25;6;3;
40371;PMS5003;28564;53.346;-6.554;2023-11-21T01:11:52;4;3;
40371;PMS5003;28564;53.346;-6.554;2023-11-21T01:14:20;6;3;
40371;PMS5003;28564;53.346;-6.554;2023-11-21T01:16:47;4;2;
40371;PMS5003;28564;53.346;-6.554;2023-11-21T01:19:14;4;2;
40371;PMS5003;28564;53.346;-6.554;2023-11-21T01:21:41;4;1;
40371;PMS5003;28564;53.346;-6.554;2023-11-21T01:24:09;4;2;
40371;PMS5003;28564;53.346;-6.554;2023-11-21T01:26:36;3;1;
40371;PMS5003;28564;53.346;-6.554;2023-11-21T01:29:03;5;2;
40371;PMS5003;28564;53.346;-6.554;2023-11-21T01:31:30;6;2;
40371;PMS5003;28564;53.346;-6.554;2023-11-21T01:33:58;4;1;
40371;PMS5003;28564;53.346;-6.554;2023-11-21T01:36:29;3;2;
40371;PMS5003;28564;53.346;-6.554;2023-11-21T01:38:58;3;2;
40371;PMS5003;28564;53.346;-6.554;2023-11-21T01:41:25;3;2;
40371;PMS5003;28564;53.346;-6.554;2023-11-21T01:43:52;1;1;
40371;PMS5003;28564;53.346;-6.554;2023-11-21T01:46:20;1;1;
40371;PMS5003;28564;53.346;-6.554;2023-11-21T01:48:48;5;1;
40371;PMS5003;28564;53.346;-6.554;2023-11-21T01:51:16;6;2;
40371;PMS5003;28564;53.346;-6.554;2023-11-21T01:53:45;2;1;
40371;PMS5003;28564;53.346;-6.554;2023-11-21T01:56:13;5;2;
40371;PMS5003;28564;53.346;-6.554;2023-11-21T01:58:41;2;1;
40371;PMS5003;28564;53.346;-6.554;2023-11-21T02:01:09;3;2;
40371;PMS5003;28564;53.346;-6.554;2023-11-21T02:03:36;3;2;
40371;PMS5003;28564;53.346;-6.554;2023-11-21T02:06:03;4;3;
40371;PMS5003;28564;53.346;-6.554;2023-11-21T02:08:31;3;3;
40371;PMS5003;28564;53.346;-6.554;2023-11-21T02:10:59;1;1;
40371;PMS5003;28564;53.346;-6.554;2023-11-21T02:13:26;2;1;
40371;PMS5003;28564;53.346;-6.554;2023-11-21T02:15:53;2;1;
40371;PMS5003;28564;53.346;-6.554;2023-11-21T02:18:21;3;1;
40371;PMS5003;28564;53.346;-6.554;2023-11-21T02:20:48;4;3;
40371;PMS5003;28564;53.346;-6.554;2023-11-21T02:23:15;1;1;
40371;PMS5003;28564;53.346;-6.554;2023-11-21T02:25:43;1;1;
40371;PMS5003;28564;53.346;-6.554;2023-11-21T02:28:10;2;2;
40371;PMS5003;28564;53.346;-6.554;2023-11-21T02:30:37;0;0;
40371;PMS5003;28564;53.346;-6.554;2023-11-21T02:33:04;1;1;
40371;PMS5003;28564;53.346;-6.554;2023-11-21T02:35:32;3;0;
40371;PMS5003;28564;53.346;-6.554;2023-11-21T02:37:59;2;2;
40371;PMS5003;28564;53.346;-6.554;2023-11-21T02:40:26;3;3;
40371;PMS5003;28564;53.346;-6.554;2023-11-21T02:42:54;2;1;
40371;PMS5003;28564;53.346;-6.554;2023-11-21T02:45:21;3;2;
40371;PMS5003;28564;53.346;-6.554;2023-11-21T02:47:48;3;3;
40371;PMS5003;28564;53.346;-6.554;2023-11-21T02:50:15;2;0;
40371;PMS5003;28564;53.346;-6.554;2023-11-21T02:52:43;1;1;
40371;PMS5003;28564;53.346;-6.554;2023-11-21T02:55:10;1;1;
40371;PMS5003;28564;53.346;-6.554;2023-11-21T02:57:37;6;1;
40371;PMS5003;28564;53.346;-6.554;2023-11-21T03:00:05;1;1;
40371;PMS5003;28564;53.346;-6.554;2023-11-21T03:02:34;2;0;
40371;PMS5003;28564;53.346;-6.554;2023-11-21T03:05:01;2;1;
40371;PMS5003;28564;53.346;-6.554;2023-11-21T03:07:28;3;1;
40371;PMS5003;28564;53.346;-6.554;2023-11-21T03:09:55;2;2;
40371;PMS5003;28564;53.346;-6.554;2023-11-21T03:12:23;1;1;
40371;PMS5003;28564;53.346;-6.554;2023-11-21T03:14:50;2;1;
40371;PMS5003;28564;53.346;-6.554;2023-11-21T03:17:17;1;0;
40371;PMS5003;28564;53.346;-6.554;2023-11-21T03:19:44;2;2;
40371;PMS5003;28564;53.346;-6.554;2023-11-21T03:22:11;1;1;
40371;PMS5003;28564;53.346;-6.554;2023-11-21T03:24:39;1;1;
40371;PMS5003;28564;53.346;-6.554;2023-11-21T03:27:06;3;2;
40371;PMS5003;28564;53.346;-6.554;2023-11-21T03:29:33;2;0;
40371;PMS5003;28564;53.346;-6.554;2023-11-21T03:32:01;0;0;
40371;PMS5003;28564;53.346;-6.554;2023-11-21T03:34:28;1;0;
40371;PMS5003;28564;53.346;-6.554;2023-11-21T03:36:55;1;1;
40371;PMS5003;28564;53.346;-6.554;2023-11-21T03:39:23;3;0;
40371;PMS5003;28564;53.346;-6.554;2023-11-21T03:41:50;1;0;
40371;PMS5003;28564;53.346;-6.554;2023-11-21T03:44:18;2;0;
40371;PMS5003;28564;53.346;-6.554;2023-11-21T03:46:45;1;1;
40371;PMS5003;28564;53.346;-6.554;2023-11-21T03:49:13;0;0;
40371;PMS5003;28564;53.346;-6.554;2023-11-21T03:51:40;3;0;
40371;PMS5003;28564;53.346;-6.554;2023-11-21T03:54:07;3;1;
40371;PMS5003;28564;53.346;-6.554;2023-11-21T03:56:34;1;0;
40371;PMS5003;28564;53.346;-6.554;2023-11-21T03:59:02;1;1;
40371;PMS5003;28564;53.346;-6.554;2023-11-21T04:01:29;2;1;
40371;PMS5003;28564;53.346;-6.554;2023-11-21T04:03:56;4;1;
40371;PMS5003;28564;53.346;-6.554;2023-11-21T04:06:23;0;0;
40371;PMS5003;28564;53.346;-6.554;2023-11-21T04:08:51;3;1;
40371;PMS5003;28564;53.346;-6.554;2023-11-21T04:11:18;1;1;
40371;PMS5003;28564;53.346;-6.554;2023-11-21T04:13:45;0;0;
40371;PMS5003;28564;53.346;-6.554;2023-11-21T04:16:13;3;1;
40371;PMS5003;28564;53.346;-6.554;2023-11-21T04:18:40;1;1;
40371;PMS5003;28564;53.346;-6.554;2023-11-21T04:21:07;3;0;
40371;PMS5003;28564;53.346;-6.554;2023-11-21T04:23:35;0;0;
40371;PMS5003;28564;53.346;-6.554;2023-11-21T04:26:02;1;1;
40371;PMS5003;28564;53.346;-6.554;2023-11-21T04:28:29;0;0;
40371;PMS5003;28564;53.346;-6.554;2023-11-21T04:30:56;2;2;
40371;PMS5003;28564;53.346;-6.554;2023-11-21T04:33:24;1;1;
40371;PMS5003;28564;53.346;-6.554;2023-11-21T04:35:51;1;1;
40371;PMS5003;28564;53.346;-6.554;2023-11-21T04:38:18;4;3;
40371;PMS5003;28564;53.346;-6.554;2023-11-21T04:40:46;3;3;
40371;PMS5003;28564;53.346;-6.554;2023-11-21T04:43:13;1;0;
40371;PMS5003;28564;53.346;-6.554;2023-11-21T04:45:40;6;5;
40371;PMS5003;28564;53.346;-6.554;2023-11-21T04:48:08;4;0;
40371;PMS5003;28564;53.346;-6.554;2023-11-21T04:50:35;0;0;
40371;PMS5003;28564;53.346;-6.554;2023-11-21T04:53:02;1;1;
40371;PMS5003;28564;53.346;-6.554;2023-11-21T04:55:29;5;1;
40371;PMS5003;28564;53.346;-6.554;2023-11-21T04:57:57;3;1;
40371;PMS5003;28564;53.346;-6.554;2023-11-21T05:00:24;3;2;
40371;PMS5003;28564;53.346;-6.554;2023-11-21T05:02:51;2;2;
40371;PMS5003;28564;53.346;-6.554;2023-11-21T05:05:19;3;2;
40371;PMS5003;28564;53.346;-6.554;2023-11-21T05:07:46;4;2;
40371;PMS5003;28564;53.346;-6.554;2023-11-21T05:10:13;3;2;
40371;PMS5003;28564;53.346;-6.554;2023-11-21T05:12:40;2;2;
40371;PMS5003;28564;53.346;-6.554;2023-11-21T05:15:09;2;2;
40371;PMS5003;28564;53.346;-6.554;2023-11-21T05:17:41;2;1;
40371;PMS5003;28564;53.346;-6.554;2023-11-21T05:20:09;2;2;
40371;PMS5003;28564;53.346;-6.554;2023-11-21T05:22:37;2;2;
40371;PMS5003;28564;53.346;-6.554;2023-11-21T05:25:05;3;1;
40371;PMS5003;28564;53.346;-6.554;2023-11-21T05:27:33;1;1;
40371;PMS5003;28564;53.346;-6.554;2023-11-21T05:30:01;5;2;
40371;PMS5003;28564;53.346;-6.554;2023-11-21T05:32:28;2;1;
40371;PMS5003;28564;53.346;-6.554;2023-11-21T05:34:56;3;1;
40371;PMS5003;28564;53.346;-6.554;2023-11-21T05:37:23;3;3;
40371;PMS5003;28564;53.346;-6.554;2023-11-21T05:39:51;1;0;
40371;PMS5003;28564;53.346;-6.554;2023-11-21T05:42:18;1;1;
40371;PMS5003;28564;53.346;-6.554;2023-11-21T05:44:45;2;2;
40371;PMS5003;28564;53.346;-6.554;2023-11-21T05:47:12;2;1;
40371;PMS5003;28564;53.346;-6.554;2023-11-21T05:49:41;2;1;
40371;PMS5003;28564;53.346;-6.554;2023-11-21T05:52:08;2;2;
40371;PMS5003;28564;53.346;-6.554;2023-11-21T05:54:35;3;2;
40371;PMS5003;28564;53.346;-6.554;2023-11-21T05:57:03;3;3;
40371;PMS5003;28564;53.346;-6.554;2023-11-21T05:59:30;1;1;
40371;PMS5003;28564;53.346;-6.554;2023-11-21T06:02:02;1;1;
40371;PMS5003;28564;53.346;-6.554;2023-11-21T06:04:30;5;2;
40371;PMS5003;28564;53.346;-6.554;2023-11-21T06:06:57;2;2;
40371;PMS5003;28564;53.346;-6.554;2023-11-21T06:09:24;2;1;
40371;PMS5003;28564;53.346;-6.554;2023-11-21T06:11:52;1;1;
40371;PMS5003;28564;53.346;-6.554;2023-11-21T06:14:19;3;1;
40371;PMS5003;28564;53.346;-6.554;2023-11-21T06:16:46;2;0;
40371;PMS5003;28564;53.346;-6.554;2023-11-21T06:19:14;1;1;
40371;PMS5003;28564;53.346;-6.554;2023-11-21T06:21:41;3;1;
40371;PMS5003;28564;53.346;-6.554;2023-11-21T06:24:12;3;1;
40371;PMS5003;28564;53.346;-6.554;2023-11-21T06:26:39;0;0;
40371;PMS5003;28564;53.346;-6.554;2023-11-21T06:29:06;6;3;
40371;PMS5003;28564;53.346;-6.554;2023-11-21T06:31:34;2;2;
40371;PMS5003;28564;53.346;-6.554;2023-11-21T06:34:01;4;2;
40371;PMS5003;28564;53.346;-6.554;2023-11-21T06:36:29;3;2;
40371;PMS5003;28564;53.346;-6.554;2023-11-21T06:38:56;1;1;
40371;PMS5003;28564;53.346;-6.554;2023-11-21T06:41:24;2;0;
40371;PMS5003;28564;53.346;-6.554;2023-11-21T06:43:51;4;2;
40371;PMS5003;28564;53.346;-6.554;2023-11-21T06:46:18;2;2;
40371;PMS5003;28564;53.346;-6.554;2023-11-21T06:48:46;3;1;
40371;PMS5003;28564;53.346;-6.554;2023-11-21T06:51:13;5;1;
40371;PMS5003;28564;53.346;-6.554;2023-11-21T06:53:40;3;2;
40371;PMS5003;28564;53.346;-6.554;2023-11-21T06:56:15;6;6;
40371;PMS5003;28564;53.346;-6.554;2023-11-21T06:58:42;2;2;
40371;PMS5003;28564;53.346;-6.554;2023-11-21T07:01:09;1;1;
40371;PMS5003;28564;53.346;-6.554;2023-11-21T07:03:37;4;2;
40371;PMS5003;28564;53.346;-6.554;2023-11-21T07:06:04;7;1;
40371;PMS5003;28564;53.346;-6.554;2023-11-21T07:08:32;4;1;
40371;PMS5003;28564;53.346;-6.554;2023-11-21T07:11:00;2;1;
40371;PMS5003;28564;53.346;-6.554;2023-11-21T07:13:27;3;2;
40371;PMS5003;28564;53.346;-6.554;2023-11-21T07:15:54;2;1;
40371;PMS5003;28564;53.346;-6.554;2023-11-21T07:18:22;1;1;
40371;PMS5003;28564;53.346;-6.554;2023-11-21T07:20:49;1;1;
40371;PMS5003;28564;53.346;-6.554;2023-11-21T07:23:16;3;1;
40371;PMS5003;28564;53.346;-6.554;2023-11-21T07:25:44;2;0;
40371;PMS5003;28564;53.346;-6.554;2023-11-21T07:28:11;0;0;
40371;PMS5003;28564;53.346;-6.554;2023-11-21T07:30:38;4;2;
40371;PMS5003;28564;53.346;-6.554;2023-11-21T07:33:06;3;2;
40371;PMS5003;28564;53.346;-6.554;2023-11-21T07:35:33;4;3;
40371;PMS5003;28564;53.346;-6.554;2023-11-21T07:38:00;5;1;
40371;PMS5003;28564;53.346;-6.554;2023-11-21T07:40:28;1;1;
40371;PMS5003;28564;53.346;-6.554;2023-11-21T07:42:55;2;2;
40371;PMS5003;28564;53.346;-6.554;2023-11-21T07:45:22;3;2;
40371;PMS5003;28564;53.346;-6.554;2023-11-21T07:47:49;6;3;
40371;PMS5003;28564;53.346;-6.554;2023-11-21T07:50:17;1;1;
40371;PMS5003;28564;53.346;-6.554;2023-11-21T07:52:44;2;2;
40371;PMS5003;28564;53.346;-6.554;2023-11-21T07:55:11;2;2;
40371;PMS5003;28564;53.346;-6.554;2023-11-21T07:57:39;2;1;
40371;PMS5003;28564;53.346;-6.554;2023-11-21T08:00:06;1;1;
40371;PMS5003;28564;53.346;-6.554;2023-11-21T08:02:34;2;2;
40371;PMS5003;28564;53.346;-6.554;2023-11-21T08:05:01;8;3;
40371;PMS5003;28564;53.346;-6.554;2023-11-21T08:07:29;4;3;
40371;PMS5003;28564;53.346;-6.554;2023-11-21T08:09:56;4;2;
40371;PMS5003;28564;53.346;-6.554;2023-11-21T08:12:23;1;1;
40371;PMS5003;28564;53.346;-6.554;2023-11-21T08:14:51;3;3;
40371;PMS5003;28564;53.346;-6.554;2023-11-21T08:17:18;1;1;
40371;PMS5003;28564;53.346;-6.554;2023-11-21T08:19:45;3;2;
40371;PMS5003;28564;53.346;-6.554;2023-11-21T08:22:13;4;3;
40371;PMS5003;28564;53.346;-6.554;2023-11-21T08:24:40;0;0;
40371;PMS5003;28564;53.346;-6.554;2023-11-21T08:27:07;3;3;
40371;PMS5003;28564;53.346;-6.554;2023-11-21T08:29:34;1;1;
40371;PMS5003;28564;53.346;-6.554;2023-11-21T08:32:02;3;0;
40371;PMS5003;28564;53.346;-6.554;2023-11-21T08:34:30;3;2;
40371;PMS5003;28564;53.346;-6.554;2023-11-21T08:36:57;6;2;
40371;PMS5003;28564;53.346;-6.554;2023-11-21T08:39:25;3;1;
40371;PMS5003;28564;53.346;-6.554;2023-11-21T08:41:52;4;2;
40371;PMS5003;28564;53.346;-6.554;2023-11-21T08:44:19;3;2;
40371;PMS5003;28564;53.346;-6.554;2023-11-21T08:46:47;1;1;
40371;PMS5003;28564;53.346;-6.554;2023-11-21T08:49:14;2;1;
40371;PMS5003;28564;53.346;-6.554;2023-11-21T08:51:41;2;2;
40371;PMS5003;28564;53.346;-6.554;2023-11-21T08:54:10;3;3;
40371;PMS5003;28564;53.346;-6.554;2023-11-21T08:56:38;2;2;
40371;PMS5003;28564;53.346;-6.554;2023-11-21T08:59:05;1;1;
40371;PMS5003;28564;53.346;-6.554;2023-11-21T09:01:32;5;3;
40371;PMS5003;28564;53.346;-6.554;2023-11-21T09:04:00;3;2;
40371;PMS5003;28564;53.346;-6.554;2023-11-21T09:06:27;2;2;
40371;PMS5003;28564;53.346;-6.554;2023-11-21T09:08:54;1;1;
40371;PMS5003;28564;53.346;-6.554;2023-11-21T09:11:22;3;2;
40371;PMS5003;28564;53.346;-6.554;2023-11-21T09:13:49;4;3;
40371;PMS5003;28564;53.346;-6.554;2023-11-21T09:16:16;2;2;
40371;PMS5003;28564;53.346;-6.554;2023-11-21T09:18:44;3;3;
40371;PMS5003;28564;53.346;-6.554;2023-11-21T09:21:12;2;2;
40371;PMS5003;28564;53.346;-6.554;2023-11-21T09:23:39;3;2;
40371;PMS5003;28564;53.346;-6.554;2023-11-21T09:26:06;2;1;
40371;PMS5003;28564;53.346;-6.554;2023-11-21T09:28:34;4;2;
40371;PMS5003;28564;53.346;-6.554;2023-11-21T09:31:01;3;3;
40371;PMS5003;28564;53.346;-6.554;2023-11-21T09:33:28;2;2;
40371;PMS5003;28564;53.346;-6.554;2023-11-21T09:35:56;4;1;
40371;PMS5003;28564;53.346;-6.554;2023-11-21T09:38:23;2;2;
40371;PMS5003;28564;53.346;-6.554;2023-11-21T09:40:51;3;2;
40371;PMS5003;28564;53.346;-6.554;2023-11-21T09:43:18;4;2;
40371;PMS5003;28564;53.346;-6.554;2023-11-21T09:45:47;2;2;
40371;PMS5003;28564;53.346;-6.554;2023-11-21T09:48:22;1;1;
40371;PMS5003;28564;53.346;-6.554;2023-11-21T09:50:51;4;3;
40371;PMS5003;28564;53.346;-6.554;2023-11-21T09:53:21;2;2;
40371;PMS5003;28564;53.346;-6.554;2023-11-21T09:55:50;3;2;
40371;PMS5003;28564;53.346;-6.554;2023-11-21T09:58:18;2;2;
40371;PMS5003;28564;53.346;-6.554;2023-11-21T10:03:54;2;2;
40371;PMS5003;28564;53.346;-6.554;2023-11-21T10:06:22;3;2;
40371;PMS5003;28564;53.346;-6.554;2023-11-21T10:08:51;3;1;
40371;PMS5003;28564;53.346;-6.554;2023-11-21T10:11:18;3;1;
40371;PMS5003;28564;53.346;-6.554;2023-11-21T10:13:47;4;3;
40371;PMS5003;28564;53.346;-6.554;2023-11-21T10:16:15;3;2;
40371;PMS5003;28564;53.346;-6.554;2023-11-21T10:18:46;2;2;
40371;PMS5003;28564;53.346;-6.554;2023-11-21T10:21:18;2;2;
40371;PMS5003;28564;53.346;-6.554;2023-11-21T10:23:45;1;1;
40371;PMS5003;28564;53.346;-6.554;2023-11-21T10:26:13;4;1;
40371;PMS5003;28564;53.346;-6.554;2023-11-21T10:28:40;2;1;
40371;PMS5003;28564;53.346;-6.554;2023-11-21T10:31:08;2;2;
40371;PMS5003;28564;53.346;-6.554;2023-11-21T10:33:35;2;2;
40371;PMS5003;28564;53.346;-6.554;2023-11-21T10:36:02;4;2;
40371;PMS5003;28564;53.346;-6.554;2023-11-21T10:38:31;3;2;
40371;PMS5003;28564;53.346;-6.554;2023-11-21T10:41:09;1;0;
40371;PMS5003;28564;53.346;-6.554;2023-11-21T10:43:38;1;1;
40371;PMS5003;28564;53.346;-6.554;2023-11-21T10:46:06;2;2;
40371;PMS5003;28564;53.346;-6.554;2023-11-21T10:48:34;4;2;
40371;PMS5003;28564;53.346;-6.554;2023-11-21T10:51:01;2;1;
40371;PMS5003;28564;53.346;-6.554;2023-11-21T10:53:33;4;2;
40371;PMS5003;28564;53.346;-6.554;2023-11-21T10:56:01;2;1;
40371;PMS5003;28564;53.346;-6.554;2023-11-21T10:58:32;4;3;
40371;PMS5003;28564;53.346;-6.554;2023-11-21T11:00:59;3;2;
40371;PMS5003;28564;53.346;-6.554;2023-11-21T11:03:32;3;3;
40371;PMS5003;28564;53.346;-6.554;2023-11-21T11:06:02;3;1;
40371;PMS5003;28564;53.346;-6.554;2023-11-21T11:08:31;3;1;
40371;PMS5003;28564;53.346;-6.554;2023-11-21T11:10:58;4;2;
40371;PMS5003;28564;53.346;-6.554;2023-11-21T11:13:25;3;2;
40371;PMS5003;28564;53.346;-6.554;2023-11-21T11:15:56;3;3;
40371;PMS5003;28564;53.346;-6.554;2023-11-21T11:18:24;4;2;
40371;PMS5003;28564;53.346;-6.554;2023-11-21T11:20:52;2;2;
40371;PMS5003;28564;53.346;-6.554;2023-11-21T11:23:27;2;1;
40371;PMS5003;28564;53.346;-6.554;2023-11-21T11:26:08;1;1;
40371;PMS5003;28564;53.346;-6.554;2023-11-21T11:28:47;4;2;
40371;PMS5003;28564;53.346;-6.554;2023-11-21T11:31:24;3;1;
40371;PMS5003;28564;53.346;-6.554;2023-11-21T11:34:06;2;2;
40371;PMS5003;28564;53.346;-6.554;2023-11-21T11:36:43;3;1;
40371;PMS5003;28564;53.346;-6.554;2023-11-21T11:39:31;1;1;
40371;PMS5003;28564;53.346;-6.554;2023-11-21T11:42:02;2;1;
40371;PMS5003;28564;53.346;-6.554;2023-11-21T11:44:47;2;2;
40371;PMS5003;28564;53.346;-6.554;2023-11-21T11:47:16;2;2;
40371;PMS5003;28564;53.346;-6.554;2023-11-21T11:50:04;2;1;
40371;PMS5003;28564;53.346;-6.554;2023-11-21T11:52:34;4;1;
40371;PMS5003;28564;53.346;-6.554;2023-11-21T11:55:02;2;1;
40371;PMS5003;28564;53.346;-6.554;2023-11-21T11:57:30;1;1;
40371;PMS5003;28564;53.346;-6.554;2023-11-21T12:00:15;2;1;
40371;PMS5003;28564;53.346;-6.554;2023-11-21T12:02:44;3;1;
40371;PMS5003;28564;53.346;-6.554;2023-11-21T12:05:13;2;2;
40371;PMS5003;28564;53.346;-6.554;2023-11-21T12:07:43;2;1;
40371;PMS5003;28564;53.346;-6.554;2023-11-21T12:10:13;2;1;
40371;PMS5003;28564;53.346;-6.554;2023-11-21T12:12:42;2;2;
40371;PMS5003;28564;53.346;-6.554;2023-11-21T12:15:12;1;1;
40371;PMS5003;28564;53.346;-6.554;2023-11-21T12:17:39;0;0;
40371;PMS5003;28564;53.346;-6.554;2023-11-21T12:20:09;6;1;
40371;PMS5003;28564;53.346;-6.554;2023-11-21T12:22:37;2;1;
40371;PMS5003;28564;53.346;-6.554;2023-11-21T12:25:06;3;2;
40371;PMS5003;28564;53.346;-6.554;2023-11-21T12:27:33;3;1;
40371;PMS5003;28564;53.346;-6.554;2023-11-21T12:30:01;1;1;
40371;PMS5003;28564;53.346;-6.554;2023-11-21T12:32:28;3;1;
40371;PMS5003;28564;53.346;-6.554;2023-11-21T12:34:55;2;1;
40371;PMS5003;28564;53.346;-6.554;2023-11-21T12:37:22;1;1;
40371;PMS5003;28564;53.346;-6.554;2023-11-21T12:39:49;1;1;
40371;PMS5003;28564;53.346;-6.554;2023-11-21T12:42:16;1;1;
40371;PMS5003;28564;53.346;-6.554;2023-11-21T12:44:45;2;1;
40371;PMS5003;28564;53.346;-6.554;2023-11-21T12:47:16;1;1;
40371;PMS5003;28564;53.346;-6.554;2023-11-21T12:49:44;1;1;
40371;PMS5003;28564;53.346;-6.554;2023-11-21T12:52:11;3;2;
40371;PMS5003;28564;53.346;-6.554;2023-11-21T12:54:38;0;0;
40371;PMS5003;28564;53.346;-6.554;2023-11-21T12:57:05;1;1;
40371;PMS5003;28564;53.346;-6.554;2023-11-21T12:59:33;3;1;
40371;PMS5003;28564;53.346;-6.554;2023-11-21T13:02:00;0;0;
40371;PMS5003;28564;53.346;-6.554;2023-11-21T13:04:29;0;0;
40371;PMS5003;28564;53.346;-6.554;2023-11-21T13:07:02;4;1;
40371;PMS5003;28564;53.346;-6.554;2023-11-21T13:09:30;0;0;
40371;PMS5003;28564;53.346;-6.554;2023-11-21T13:11:59;0;0;
40371;PMS5003;28564;53.346;-6.554;2023-11-21T13:14:28;2;1;
40371;PMS5003;28564;53.346;-6.554;2023-11-21T13:16:56;3;2;
40371;PMS5003;28564;53.346;-6.554;2023-11-21T13:19:23;2;2;
40371;PMS5003;28564;53.346;-6.554;2023-11-21T13:21:50;5;2;
40371;PMS5003;28564;53.346;-6.554;2023-11-21T13:24:18;2;2;
40371;PMS5003;28564;53.346;-6.554;2023-11-21T13:26:45;1;1;
40371;PMS5003;28564;53.346;-6.554;2023-11-21T13:29:12;3;1;
40371;PMS5003;28564;53.346;-6.554;2023-11-21T13:31:40;3;1;
40371;PMS5003;28564;53.346;-6.554;2023-11-21T13:34:07;4;2;
40371;PMS5003;28564;53.346;-6.554;2023-11-21T13:36:34;1;1;
40371;PMS5003;28564;53.346;-6.554;2023-11-21T13:39:01;2;2;
40371;PMS5003;28564;53.346;-6.554;2023-11-21T13:41:28;5;2;
40371;PMS5003;28564;53.346;-6.554;2023-11-21T13:43:55;5;1;
40371;PMS5003;28564;53.346;-6.554;2023-11-21T13:46:23;4;3;
40371;PMS5003;28564;53.346;-6.554;2023-11-21T13:48:50;2;2;
40371;PMS5003;28564;53.346;-6.554;2023-11-21T13:51:17;2;1;
40371;PMS5003;28564;53.346;-6.554;2023-11-21T13:53:45;3;2;
40371;PMS5003;28564;53.346;-6.554;2023-11-21T13:56:14;2;2;
40371;PMS5003;28564;53.346;-6.554;2023-11-21T13:58:41;3;2;
40371;PMS5003;28564;53.346;-6.554;2023-11-21T14:01:08;3;2;
40371;PMS5003;28564;53.346;-6.554;2023-11-21T14:03:36;4;3;
40371;PMS5003;28564;53.346;-6.554;2023-11-21T14:06:03;3;1;
40371;PMS5003;28564;53.346;-6.554;2023-11-21T14:08:31;1;1;
40371;PMS5003;28564;53.346;-6.554;2023-11-21T14:11:04;2;2;
40371;PMS5003;28564;53.346;-6.554;2023-11-21T14:13:31;6;3;
40371;PMS5003;28564;53.346;-6.554;2023-11-21T14:15:58;1;1;
40371;PMS5003;28564;53.346;-6.554;2023-11-21T14:18:25;5;4;
40371;PMS5003;28564;53.346;-6.554;2023-11-21T14:20:53;9;6;
40371;PMS5003;28564;53.346;-6.554;2023-11-21T14:23:25;12;10;
40371;PMS5003;28564;53.346;-6.554;2023-11-21T14:25:52;11;10;
40371;PMS5003;28564;53.346;-6.554;2023-11-21T14:28:20;13;10;
40371;PMS5003;28564;53.346;-6.554;2023-11-21T14:30:47;12;12;
40371;PMS5003;28564;53.346;-6.554;2023-11-21T14:33:14;9;8;
40371;PMS5003;28564;53.346;-6.554;2023-11-21T14:35:41;10;10;
40371;PMS5003;28564;53.346;-6.554;2023-11-21T14:38:08;18;11;
40371;PMS5003;28564;53.346;-6.554;2023-11-21T14:40:36;18;17;
40371;PMS5003;28564;53.346;-6.554;2023-11-21T14:43:03;14;13;
40371;PMS5003;28564;53.346;-6.554;2023-11-21T14:45:31;16;15;
40371;PMS5003;28564;53.346;-6.554;2023-11-21T14:47:59;10;10;
40371;PMS5003;28564;53.346;-6.554;2023-11-21T14:50:27;10;10;
40371;PMS5003;28564;53.346;-6.554;2023-11-21T14:52:54;5;4;
40371;PMS5003;28564;53.346;-6.554;2023-11-21T14:55:21;2;2;
40371;PMS5003;28564;53.346;-6.554;2023-11-21T14:57:48;5;3;
40371;PMS5003;28564;53.346;-6.554;2023-11-21T15:00:16;5;2;
40371;PMS5003;28564;53.346;-6.554;2023-11-21T15:02:44;4;2;
40371;PMS5003;28564;53.346;-6.554;2023-11-21T15:05:11;3;3;
40371;PMS5003;28564;53.346;-6.554;2023-11-21T15:07:39;2;2;
40371;PMS5003;28564;53.346;-6.554;2023-11-21T15:10:07;2;1;
40371;PMS5003;28564;53.346;-6.554;2023-11-21T15:12:34;0;0;
40371;PMS5003;28564;53.346;-6.554;2023-11-21T15:15:02;1;1;
40371;PMS5003;28564;53.346;-6.554;2023-11-21T15:17:29;3;2;
40371;PMS5003;28564;53.346;-6.554;2023-11-21T15:19:56;3;1;
40371;PMS5003;28564;53.346;-6.554;2023-11-21T15:22:23;0;0;
40371;PMS5003;28564;53.346;-6.554;2023-11-21T15:24:50;4;2;
40371;PMS5003;28564;53.346;-6.554;2023-11-21T15:27:17;2;1;
40371;PMS5003;28564;53.346;-6.554;2023-11-21T15:29:44;3;1;
40371;PMS5003;28564;53.346;-6.554;2023-11-21T15:32:12;2;2;
40371;PMS5003;28564;53.346;-6.554;2023-11-21T15:34:40;3;2;
40371;PMS5003;28564;53.346;-6.554;2023-11-21T15:37:17;4;1;
40371;PMS5003;28564;53.346;-6.554;2023-11-21T15:39:44;4;1;
40371;PMS5003;28564;53.346;-6.554;2023-11-21T15:42:11;3;1;
40371;PMS5003;28564;53.346;-6.554;2023-11-21T15:44:39;1;1;
40371;PMS5003;28564;53.346;-6.554;2023-11-21T15:47:06;5;2;
40371;PMS5003;28564;53.346;-6.554;2023-11-21T15:49:33;6;4;
40371;PMS5003;28564;53.346;-6.554;2023-11-21T15:52:01;1;1;
40371;PMS5003;28564;53.346;-6.554;2023-11-21T15:54:28;5;3;
40371;PMS5003;28564;53.346;-6.554;2023-11-21T15:56:55;3;1;
40371;PMS5003;28564;53.346;-6.554;2023-11-21T15:59:23;4;2;
40371;PMS5003;28564;53.346;-6.554;2023-11-21T16:01:55;3;1;
40371;PMS5003;28564;53.346;-6.554;2023-11-21T16:04:22;1;1;
40371;PMS5003;28564;53.346;-6.554;2023-11-21T16:06:49;5;2;
40371;PMS5003;28564;53.346;-6.554;2023-11-21T16:09:16;3;1;
40371;PMS5003;28564;53.346;-6.554;2023-11-21T16:11:43;5;5;
40371;PMS5003;28564;53.346;-6.554;2023-11-21T16:14:10;4;1;
40371;PMS5003;28564;53.346;-6.554;2023-11-21T16:16:38;3;2;
40371;PMS5003;28564;53.346;-6.554;2023-11-21T16:19:05;1;1;
40371;PMS5003;28564;53.346;-6.554;2023-11-21T16:21:32;2;2;
40371;PMS5003;28564;53.346;-6.554;2023-11-21T16:23:59;2;2;
40371;PMS5003;28564;53.346;-6.554;2023-11-21T16:26:27;5;3;
40371;PMS5003;28564;53.346;-6.554;2023-11-21T16:28:54;3;3;
40371;PMS5003;28564;53.346;-6.554;2023-11-21T16:31:22;5;3;
40371;PMS5003;28564;53.346;-6.554;2023-11-21T16:33:49;2;2;
40371;PMS5003;28564;53.346;-6.554;2023-11-21T16:36:16;5;4;
40371;PMS5003;28564;53.346;-6.554;2023-11-21T16:38:43;4;3;
40371;PMS5003;28564;53.346;-6.554;2023-11-21T16:41:11;6;6;